Time;durP1;ratioP1;P1;durP2;ratioP2;P2;SDS_P1;SDS_P2;PMS_P1;PMS_P2;Temp;Humidity;BMP_temperature;BMP_pressure;BME280_temperature;BME280_humidity;BME280_pressure;Samples;Min_cycle;Max_cycle;Signal;HPM_P1;HPM_P2
2022/10/12 00:01:27;;;;;;;;;;;;;;;21.79;54.40;102166.88;5009464;28;2930;-56
2022/10/12 00:03:54;;;;;;;;;;;;;;;21.78;54.17;102179.03;5013388;28;2744;-56
2022/10/12 00:06:21;;;;;;;;;;;;;;;21.78;54.08;102179.03;5012490;28;2923;-53
2022/10/12 00:08:48;;;;;;;;;;;;;;;21.77;54.13;102181.16;5012748;28;2899;-54
2022/10/12 00:11:16;;;;;;;;;;;;;;;21.76;54.37;102185.41;5011381;28;3482;-53
2022/10/12 00:13:42;;;;;;;;;;;;;;;21.77;53.87;102169.63;5011534;28;2841;-55
2022/10/12 00:16:09;;;;;;;;;;;;;;;21.76;54.28;102173.88;5014601;28;2965;-56
2022/10/12 00:18:35;;;;;;;;;;;;;;;21.73;54.17;102178.78;5011625;28;2804;-55
2022/10/12 00:21:02;;;;;;;;;;;;;;;21.75;54.03;102172.38;5012973;28;2674;-54
2022/10/12 00:23:28;;;;;;;;;;;;;;;21.74;54.20;102177.41;5012461;28;2874;-55
2022/10/12 00:25:55;;;;;;;;;;;;;;;21.72;54.08;102176.53;5013387;28;2628;-54
2022/10/12 00:28:21;;;;;;;;;;;;;;;21.71;54.28;102172.88;5007499;28;3066;-54
2022/10/12 00:30:47;;;;;;;;;;;;;;;21.72;54.18;102177.28;5010007;28;2927;-55
2022/10/12 00:33:14;;;;;;;;;;;;;;;21.72;54.19;102180.16;5008253;28;2875;-54
2022/10/12 00:35:40;;;;;;;;;;;;;;;21.72;54.20;102179.41;5008142;28;2982;-53
2022/10/12 00:38:06;;;;;;;;;;;;;;;21.70;54.31;102176.41;5011989;28;2768;-56
2022/10/12 00:40:33;;;;;;;;;;;;;;;21.69;54.09;102172.78;5005996;28;2620;-53
2022/10/12 00:42:59;;;;;;;;;;;;;;;21.69;53.78;102181.41;5011058;28;2838;-55
2022/10/12 00:45:26;;;;;;;;;;;;;;;21.67;54.29;102175.53;5012183;28;2942;-53
2022/10/12 00:47:55;;;;;;;;;;;;;;;21.69;53.88;102178.53;5014314;28;2941;-53
2022/10/12 00:50:31;;;;;;;;;;;;;;;21.66;54.40;102170.38;5012522;28;3169;-55
2022/10/12 00:52:59;;;;;;;;;;;;;;;21.67;53.94;102178.41;5025135;28;1745;-53
2022/10/12 00:55:25;;;;;;;;;;;;;;;21.65;54.10;102172.50;5018654;28;2977;-54
2022/10/12 00:57:52;;;;;;;;;;;;;;;21.65;54.45;102186.19;5023302;28;1714;-53
2022/10/12 01:00:18;;;;;;;;;;;;;;;21.63;54.36;102181.03;5012252;28;2933;-56
2022/10/12 01:02:44;;;;;;;;;;;;;;;21.64;54.07;102176.75;5009585;28;2934;-54
2022/10/12 01:05:11;;;;;;;;;;;;;;;21.65;53.97;102191.94;5015917;28;2955;-53
2022/10/12 01:07:37;;;;;;;;;;;;;;;21.64;54.08;102182.53;5012413;28;2944;-55
2022/10/12 01:10:04;;;;;;;;;;;;;;;21.64;53.91;102185.41;5008474;28;2999;-53
2022/10/12 01:12:30;;;;;;;;;;;;;;;21.62;53.84;102187.41;5002428;28;3022;-51
2022/10/12 01:14:57;;;;;;;;;;;;;;;21.62;54.00;102181.66;5041653;28;3293;-54
2022/10/12 01:17:27;;;;;;;;;;;;;;;21.61;53.96;102186.69;5013879;28;2866;-56
2022/10/12 01:20:12;;;;;;;;;;;;;;;21.60;53.97;102190.94;5026604;28;2616;-55
2022/10/12 01:22:49;;;;;;;;;;;;;;;21.62;54.26;102191.06;5015253;28;2888;-54
2022/10/12 01:25:29;;;;;;;;;;;;;;;21.62;54.10;102188.16;5017939;28;2994;-54
2022/10/12 01:27:59;;;;;;;;;;;;;;;21.60;54.03;102185.19;5024906;28;2919;-55
2022/10/12 01:30:25;;;;;;;;;;;;;;;21.58;54.18;102182.16;5026080;28;2853;-56
2022/10/12 01:33:10;;;;;;;;;;;;;;;21.59;53.96;102188.69;5016913;28;2758;-52
2022/10/12 01:35:46;;;;;;;;;;;;;;;21.58;53.73;102193.69;5016462;28;1910;-52
2022/10/12 01:38:16;;;;;;;;;;;;;;;21.57;53.73;102197.94;5014533;28;2989;-54
2022/10/12 01:40:51;;;;;;;;;;;;;;;21.58;53.97;102204.44;5014172;28;3330;-55
2022/10/12 01:43:19;;;;;;;;;;;;;;;21.56;53.88;102190.69;5013917;28;3200;-55
2022/10/12 01:45:45;;;;;;;;;;;;;;;21.55;53.81;102194.94;5017329;28;2277;-55
2022/10/12 01:48:11;;;;;;;;;;;;;;;21.57;53.72;102192.19;5015632;28;2942;-55
2022/10/12 01:50:48;;;;;;;;;;;;;;;21.58;54.06;102193.69;5016141;28;2746;-53
2022/10/12 01:53:20;;;;;;;;;;;;;;;21.63;53.78;102195.44;5014222;28;2866;-54
2022/10/12 01:56:12;;;;;;;;;;;;;;;21.64;53.72;102194.06;5014556;28;3026;-54
2022/10/12 01:58:45;;;;;;;;;;;;;;;21.68;53.85;102191.44;5013415;28;2958;-54
2022/10/12 02:01:19;;;;;;;;;;;;;;;21.69;54.27;102190.06;5014753;28;2739;-54
2022/10/12 02:04:09;;;;;;;;;;;;;;;21.70;53.49;102191.56;5026567;28;2894;-54
2022/10/12 02:06:39;;;;;;;;;;;;;;;21.71;54.06;102189.44;5003472;28;3495;-55
2022/10/12 02:09:11;;;;;;;;;;;;;;;21.73;53.76;102193.19;5011578;28;2872;-50
2022/10/12 02:11:37;;;;;;;;;;;;;;;21.72;53.65;102176.53;5015648;28;2946;-55
2022/10/12 02:14:22;;;;;;;;;;;;;;;21.68;54.18;102185.66;5013974;28;1887;-54
2022/10/12 02:16:50;;;;;;;;;;;;;;;21.71;53.67;102172.88;5011139;28;3033;-54
2022/10/12 02:19:18;;;;;;;;;;;;;;;21.71;53.93;102178.63;5014813;28;2560;-54
2022/10/12 02:21:44;;;;;;;;;;;;;;;21.68;53.76;102179.91;5012161;28;2933;-52
2022/10/12 02:24:10;;;;;;;;;;;;;;;21.69;54.04;102178.53;5010734;28;2791;-53
2022/10/12 02:26:37;;;;;;;;;;;;;;;21.69;53.77;102178.53;5013867;28;2811;-54
2022/10/12 02:29:05;;;;;;;;;;;;;;;21.69;53.76;102169.91;5008471;28;3070;-50
2022/10/12 02:31:34;;;;;;;;;;;;;;;21.70;53.68;102176.41;5012876;28;2686;-55
2022/10/12 02:34:08;;;;;;;;;;;;;;;21.66;53.78;102171.13;5011940;28;2889;-50
2022/10/12 02:36:53;;;;;;;;;;;;;;;21.66;53.73;102173.25;5012405;28;2942;-54
2022/10/12 02:39:24;;;;;;;;;;;;;;;21.63;54.12;102163.75;5009985;28;3253;-51
2022/10/12 02:41:51;;;;;;;;;;;;;;;21.66;53.88;102164.63;5012960;28;2637;-54
2022/10/12 02:44:19;;;;;;;;;;;;;;;21.66;53.89;102159.59;5028150;28;2936;-53
2022/10/12 02:46:46;;;;;;;;;;;;;;;21.68;53.75;102162.59;5013951;28;2432;-55
2022/10/12 02:49:12;;;;;;;;;;;;;;;21.69;54.00;102164.13;5016571;28;3244;-52
2022/10/12 02:51:38;;;;;;;;;;;;;;;21.67;53.94;102161.13;5026119;28;2470;-53
2022/10/12 02:54:05;;;;;;;;;;;;;;;21.71;53.64;102158.47;5020860;28;2921;-53
2022/10/12 02:56:31;;;;;;;;;;;;;;;21.72;53.96;102151.31;5009359;28;3144;-53
2022/10/12 02:58:57;;;;;;;;;;;;;;;21.72;54.00;102154.22;5011553;28;3023;-55
2022/10/12 03:01:24;;;;;;;;;;;;;;;21.73;53.59;102152.06;5019457;28;2815;-54
2022/10/12 03:03:50;;;;;;;;;;;;;;;21.73;53.85;102149.94;5013966;28;2894;-54
2022/10/12 03:06:18;;;;;;;;;;;;;;;21.74;53.96;102147.81;5009934;28;2950;-50
2022/10/12 03:08:45;;;;;;;;;;;;;;;21.72;53.69;102151.31;5012181;28;2878;-55
2022/10/12 03:11:11;;;;;;;;;;;;;;;21.70;53.92;102148.31;5011174;28;2922;-54
2022/10/12 03:13:38;;;;;;;;;;;;;;;21.73;53.74;102152.81;5012196;28;3274;-53
2022/10/12 03:16:05;;;;;;;;;;;;;;;21.73;54.03;102140.53;5008743;28;2906;-54
2022/10/12 03:18:31;;;;;;;;;;;;;;;21.75;53.75;102143.56;5012807;28;4148;-53
2022/10/12 03:20:58;;;;;;;;;;;;;;;21.74;53.91;102148.56;5010372;28;2894;-54
2022/10/12 03:23:24;;;;;;;;;;;;;;;21.76;53.61;102145.03;5011109;28;3252;-54
2022/10/12 03:25:50;;;;;;;;;;;;;;;21.76;53.79;102153.69;5012628;28;2965;-56
2022/10/12 03:28:17;;;;;;;;;;;;;;;21.77;53.91;102140.78;5014759;28;2936;-52
2022/10/12 03:30:43;;;;;;;;;;;;;;;21.77;53.75;102143.69;5013144;28;2992;-55
2022/10/12 03:33:09;;;;;;;;;;;;;;;21.78;53.45;102150.19;5013675;28;3117;-55
2022/10/12 03:35:36;;;;;;;;;;;;;;;21.77;53.89;102145.81;5015245;28;1624;-55
2022/10/12 03:38:02;;;;;;;;;;;;;;;21.79;53.91;102143.06;5012532;28;2584;-52
2022/10/12 03:40:28;;;;;;;;;;;;;;;21.79;53.70;102148.81;5012104;28;3037;-54
2022/10/12 03:42:55;;;;;;;;;;;;;;;21.77;54.00;102134.28;5013917;28;2914;-51
2022/10/12 03:45:21;;;;;;;;;;;;;;;21.78;53.71;102138.66;5012146;28;2885;-53
2022/10/12 03:47:47;;;;;;;;;;;;;;;21.75;53.54;102135.66;5004883;28;2954;-54
2022/10/12 03:50:14;;;;;;;;;;;;;;;21.78;53.72;102136.53;5010612;28;2886;-53
2022/10/12 03:52:40;;;;;;;;;;;;;;;21.78;53.62;102139.41;5012508;28;2853;-54
2022/10/12 03:55:07;;;;;;;;;;;;;;;21.75;54.01;102137.78;5013899;28;3239;-54
2022/10/12 03:57:33;;;;;;;;;;;;;;;21.77;53.81;102140.06;5013212;28;2936;-55
2022/10/12 03:59:59;;;;;;;;;;;;;;;21.75;54.07;102143.56;5005896;28;2963;-55
2022/10/12 04:02:36;;;;;;;;;;;;;;;21.77;54.01;102140.78;5012052;28;3020;-53
2022/10/12 04:05:03;;;;;;;;;;;;;;;21.74;53.89;102137.03;5012289;28;2905;-52
2022/10/12 04:07:29;;;;;;;;;;;;;;;21.75;53.80;102144.28;5008488;28;2926;-55
2022/10/12 04:09:55;;;;;;;;;;;;;;;21.75;53.90;102144.28;5010735;28;2876;-50
2022/10/12 04:12:21;;;;;;;;;;;;;;;21.76;54.07;102145.03;5010270;28;3114;-54
2022/10/12 04:14:48;;;;;;;;;;;;;;;21.78;53.75;102147.31;5010001;28;2862;-52
2022/10/12 04:17:15;;;;;;;;;;;;;;;21.80;53.47;102156.09;5008669;28;2973;-51
2022/10/12 04:19:41;;;;;;;;;;;;;;;21.74;54.06;102153.59;5010742;28;2966;-55
2022/10/12 04:22:07;;;;;;;;;;;;;;;21.75;53.80;102152.94;5009859;28;2652;-56
2022/10/12 04:24:34;;;;;;;;;;;;;;;21.78;54.17;102141.53;5011349;28;2722;-53
2022/10/12 04:27:00;;;;;;;;;;;;;;;21.77;53.95;102149.44;5014722;28;1902;-53
2022/10/12 04:29:26;;;;;;;;;;;;;;;21.77;54.08;102151.59;5011135;28;2887;-50
2022/10/12 04:31:53;;;;;;;;;;;;;;;21.75;53.94;102143.56;5010962;28;3112;-55
2022/10/12 04:34:19;;;;;;;;;;;;;;;21.75;54.04;102152.94;5014785;28;3081;-53
2022/10/12 04:36:45;;;;;;;;;;;;;;;21.77;54.14;102142.94;5011183;28;3058;-52
2022/10/12 04:39:12;;;;;;;;;;;;;;;21.77;53.72;102152.31;5012717;28;3010;-56
2022/10/12 04:41:38;;;;;;;;;;;;;;;21.17;49.03;102150.78;5013527;28;3031;-55
2022/10/12 04:44:05;;;;;;;;;;;;;;;20.81;48.86;102155.69;5010417;28;2948;-51
2022/10/12 04:46:31;;;;;;;;;;;;;;;21.37;50.78;102162.06;5006824;28;3007;-49
2022/10/12 04:48:58;;;;;;;;;;;;;;;21.63;52.08;102163.00;5002594;28;2859;-52
2022/10/12 04:51:26;;;;;;;;;;;;;;;21.34;48.87;102156.16;5013349;28;2907;-53
2022/10/12 04:54:09;;;;;;;;;;;;;;;21.51;48.17;102160.13;5009461;28;2954;-51
2022/10/12 04:56:35;;;;;;;;;;;;;;;21.61;48.62;102160.72;5005861;28;2915;-53
2022/10/12 04:59:01;;;;;;;;;;;;;;;21.66;49.27;102164.63;5012851;28;2809;-51
2022/10/12 05:01:28;;;;;;;;;;;;;;;21.66;50.67;102164.63;5013946;28;2986;-52
2022/10/12 05:03:54;;;;;;;;;;;;;;;21.69;49.89;102158.34;5006811;28;2889;-55
2022/10/12 05:06:20;;;;;;;;;;;;;;;21.67;51.22;102155.34;5015720;28;1847;-50
2022/10/12 05:08:47;;;;;;;;;;;;;;;21.70;51.87;102164.88;5010771;28;2983;-49
2022/10/12 05:11:13;;;;;;;;;;;;;;;21.69;52.08;102161.25;5015475;28;2946;-50
2022/10/12 05:13:39;;;;;;;;;;;;;;;21.71;51.94;102160.59;5012706;28;2798;-49
2022/10/12 05:16:06;;;;;;;;;;;;;;;21.73;52.09;102161.47;5013842;28;2932;-62
2022/10/12 05:18:32;;;;;;;;;;;;;;;21.77;51.82;102163.13;5012030;28;3031;-67
2022/10/12 05:20:58;;;;;;;;;;;;;;;21.75;52.04;102163.72;5016287;28;2866;-67
2022/10/12 05:23:25;;;;;;;;;;;;;;;21.75;52.03;102160.84;5014172;28;2778;-64
2022/10/12 05:25:53;;;;;;;;;;;;;;;21.74;51.90;102163.00;5005577;28;2836;-65
2022/10/12 05:28:19;;;;;;;;;;;;;;;21.72;51.80;102157.09;5012199;28;2968;-65
2022/10/12 05:30:48;;;;;;;;;;;;;;;21.68;51.77;102159.72;5011739;28;2806;-64
2022/10/12 05:33:14;;;;;;;;;;;;;;;21.63;51.27;102160.84;5016519;28;2692;-65
2022/10/12 05:35:40;;;;;;;;;;;;;;;21.60;51.26;102162.13;5011458;28;2853;-66
2022/10/12 05:38:12;;;;;;;;;;;;;;;21.56;50.06;102169.75;5012622;28;2636;-67
2022/10/12 05:40:39;;;;;;;;;;;;;;;21.55;49.75;102163.22;5014625;28;2881;-66
2022/10/12 05:43:05;;;;;;;;;;;;;;;21.52;49.47;102173.13;5013206;28;2825;-66
2022/10/12 05:45:32;;;;;;;;;;;;;;;21.50;49.44;102173.00;5014748;28;2759;-65
2022/10/12 05:47:58;;;;;;;;;;;;;;;21.50;49.62;102170.13;5014660;28;2870;-69
2022/10/12 05:50:24;;;;;;;;;;;;;;;21.13;46.03;102167.78;5009885;28;2739;-66
2022/10/12 05:52:51;;;;;;;;;;;;;;;20.78;46.80;102168.44;5013578;28;2821;-64
2022/10/12 05:55:17;;;;;;;;;;;;;;;21.12;48.56;102174.94;5013154;28;2829;-64
2022/10/12 05:57:44;;;;;;;;;;;;;;;21.29;48.31;102171.69;5013990;28;2758;-64
2022/10/12 06:00:16;;;;;;;;;;;;;;;21.34;47.98;102164.81;5014244;28;2945;-64
2022/10/12 06:02:43;;;;;;;;;;;;;;;21.39;47.63;102173.72;5012312;28;2718;-64
2022/10/12 06:05:09;;;;;;;;;;;;;;;21.39;48.01;102173.72;5014780;28;2782;-64
2022/10/12 06:07:35;;;;;;;;;;;;;;;21.37;47.54;102177.22;5011379;28;2699;-64
2022/10/12 06:10:02;;;;;;;;;;;;;;;21.38;47.60;102180.88;5013622;28;3015;-64
2022/10/12 06:12:28;;;;;;;;;;;;;;;21.38;47.44;102175.84;5013338;28;2822;-65
2022/10/12 06:14:55;;;;;;;;;;;;;;;21.38;47.79;102178.72;5016327;28;2464;-64
2022/10/12 06:17:21;;;;;;;;;;;;;;;21.39;47.62;102177.34;5013965;28;2834;-65
2022/10/12 06:19:48;;;;;;;;;;;;;;;21.41;47.16;102185.41;5011330;28;2825;-64
2022/10/12 06:22:14;;;;;;;;;;;;;;;21.40;47.40;102189.66;5012296;28;2972;-64
2022/10/12 06:24:40;;;;;;;;;;;;;;;21.40;47.26;102189.66;5013479;28;2983;-65
2022/10/12 06:27:07;;;;;;;;;;;;;;;21.43;47.38;102191.28;5014878;28;2494;-64
2022/10/12 06:29:34;;;;;;;;;;;;;;;21.43;47.64;102189.16;5012185;28;3188;-64
2022/10/12 06:32:01;;;;;;;;;;;;;;;21.45;47.73;102197.19;5014853;28;2862;-62
2022/10/12 06:34:27;;;;;;;;;;;;;;;21.48;47.98;102195.94;5010089;28;2853;-62
2022/10/12 06:36:53;;;;;;;;;;;;;;;21.49;48.02;102192.44;5013165;28;3158;-62
2022/10/12 06:39:26;;;;;;;;;;;;;;;21.49;47.87;102192.44;5015097;28;3081;-62
2022/10/12 06:41:53;;;;;;;;;;;;;;;21.50;48.30;102193.94;5014594;28;2714;-62
2022/10/12 06:44:21;;;;;;;;;;;;;;;21.48;48.59;102184.41;5015563;28;2869;-61
2022/10/12 06:46:48;;;;;;;;;;;;;;;21.50;48.09;102193.19;5015127;28;2608;-62
2022/10/12 06:49:15;;;;;;;;;;;;;;;21.36;48.56;102195.88;5012887;28;2899;-63
2022/10/12 06:51:41;;;;;;;;;;;;;;;21.42;48.24;102192.69;5013246;28;2558;-65
2022/10/12 06:54:07;;;;;;;;;;;;;;;21.48;48.42;102190.16;5013325;28;3251;-63
2022/10/12 06:56:34;;;;;;;;;;;;;;;21.44;48.30;102195.66;5010712;28;2551;-59
2022/10/12 06:59:00;;;;;;;;;;;;;;;21.09;44.94;102202.09;5014371;28;2913;-65
2022/10/12 07:01:27;;;;;;;;;;;;;;;20.73;43.71;102206.97;5015249;28;2813;-66
2022/10/12 07:03:53;;;;;;;;;;;;;;;20.45;43.13;102205.78;5012460;28;2613;-65
2022/10/12 07:06:25;;;;;;;;;;;;;;;20.28;42.53;102209.69;5013954;28;2464;-64
2022/10/12 07:08:52;;;;;;;;;;;;;;;20.33;42.43;102199.97;5013618;28;2829;-63
2022/10/12 07:11:18;;;;;;;;;;;;;;;20.49;41.96;102195.28;5013531;28;2457;-62
2022/10/12 07:13:45;;;;;;;;;;;;;;;20.43;42.52;102197.78;5011989;28;2755;-62
2022/10/12 07:16:11;;;;;;;;;;;;;;;19.88;42.09;102203.41;5011555;28;2664;-67
2022/10/12 07:18:38;;;;;;;;;;;;;;;20.14;42.56;102200.09;5010652;28;3665;-66
2022/10/12 07:21:05;;;;;;;;;;;;;;;20.29;42.53;102206.22;5009869;28;2912;-65
2022/10/12 07:23:31;;;;;;;;;;;;;;;20.40;42.73;102210.50;5012800;28;3542;-66
2022/10/12 07:25:58;;;;;;;;;;;;;;;20.45;42.66;102206.53;5011694;28;2868;-65
2022/10/12 07:28:24;;;;;;;;;;;;;;;20.51;42.74;102206.94;5010790;28;2727;-65
2022/10/12 07:30:50;;;;;;;;;;;;;;;20.52;42.50;102204.81;5012334;28;2905;-65
2022/10/12 07:33:17;;;;;;;;;;;;;;;20.50;42.72;102207.56;5009662;28;3025;-65
2022/10/12 07:35:51;;;;;;;;;;;;;;;20.53;42.90;102206.34;5013107;28;3146;-66
2022/10/12 07:38:37;;;;;;;;;;;;;;;20.58;42.84;102207.41;5012232;28;3140;-65
2022/10/12 07:41:04;;;;;;;;;;;;;;;20.58;42.87;102196.63;5014075;28;2629;-61
2022/10/12 07:43:30;;;;;;;;;;;;;;;20.80;42.98;102206.00;5012789;28;2774;-66
2022/10/12 07:45:56;;;;;;;;;;;;;;;20.96;43.38;102208.41;5013145;28;2797;-66
2022/10/12 07:48:23;;;;;;;;;;;;;;;21.04;43.33;102208.97;5013340;28;2629;-67
2022/10/12 07:50:49;;;;;;;;;;;;;;;21.08;43.96;102204.22;5011182;28;2644;-65
2022/10/12 07:53:15;;;;;;;;;;;;;;;21.12;44.30;102195.09;5013043;28;2904;-66
2022/10/12 07:55:42;;;;;;;;;;;;;;;21.13;44.61;102202.34;5010036;28;2869;-66
2022/10/12 07:58:08;;;;;;;;;;;;;;;21.16;44.80;102200.34;5010860;28;2910;-67
2022/10/12 08:00:34;;;;;;;;;;;;;;;21.18;45.10;102212.00;5014253;28;2790;-66
2022/10/12 08:03:01;;;;;;;;;;;;;;;21.17;45.85;102202.63;5013427;28;2992;-62
2022/10/12 08:05:27;;;;;;;;;;;;;;;21.26;45.83;102204.66;5015150;28;3121;-68
2022/10/12 08:07:54;;;;;;;;;;;;;;;21.25;46.23;102197.38;5012523;28;2968;-67
2022/10/12 08:10:21;;;;;;;;;;;;;;;21.23;46.44;102203.00;5010268;28;3503;-68
2022/10/12 08:12:47;;;;;;;;;;;;;;;21.23;46.44;102203.00;5011881;28;2947;-68
2022/10/12 08:15:17;;;;;;;;;;;;;;;21.24;46.76;102198.00;5012698;28;3032;-68
2022/10/12 08:17:43;;;;;;;;;;;;;;;21.24;46.89;102195.88;5014176;28;3277;-68
2022/10/12 08:20:10;;;;;;;;;;;;;;;21.25;46.80;102208.13;5020450;28;2249;-69
2022/10/12 08:22:36;;;;;;;;;;;;;;;21.25;47.33;102197.38;5014275;28;2951;-69
2022/10/12 08:25:02;;;;;;;;;;;;;;;21.25;47.07;102206.00;5013172;28;2919;-69
2022/10/12 08:27:29;;;;;;;;;;;;;;;21.26;47.09;102206.78;5016653;28;2853;-68
2022/10/12 08:29:55;;;;;;;;;;;;;;;21.27;47.42;102196.75;5017652;28;2951;-68
2022/10/12 08:32:22;;;;;;;;;;;;;;;21.28;47.52;102201.13;5017691;28;2721;-69
2022/10/12 08:34:48;;;;;;;;;;;;;;;21.28;47.63;102198.25;5020470;28;1620;-69
2022/10/12 08:37:14;;;;;;;;;;;;;;;21.28;47.47;102196.13;5020165;28;2433;-69
2022/10/12 08:39:41;;;;;;;;;;;;;;;21.29;47.78;102191.13;5021002;28;1629;-68
2022/10/12 08:42:13;;;;;;;;;;;;;;;21.30;48.06;102196.25;5017738;28;1649;-68
2022/10/12 08:44:46;;;;;;;;;;;;;;;21.30;48.08;102199.16;5016564;28;1723;-68
2022/10/12 08:47:16;;;;;;;;;;;;;;;21.32;48.06;102205.00;5016142;28;2693;-69
2022/10/12 08:49:43;;;;;;;;;;;;;;;21.34;47.95;102201.53;5033191;28;1906;-62
2022/10/12 08:52:27;;;;;;;;;;;;;;;21.21;48.62;102200.00;5017808;28;1708;-69
2022/10/12 08:54:53;;;;;;;;;;;;;;;21.26;48.42;102204.66;5030924;28;1580;-70
2022/10/12 08:57:20;;;;;;;;;;;;;;;21.32;47.92;102190.59;5031961;28;1588;-70
2022/10/12 08:59:46;;;;;;;;;;;;;;;21.37;47.99;102196.63;5015575;28;1668;-70
2022/10/12 09:02:19;;;;;;;;;;;;;;;21.39;48.18;102194.63;5017792;28;1565;-70
2022/10/12 09:04:45;;;;;;;;;;;;;;;21.42;48.02;102196.31;5027609;28;1708;-70
2022/10/12 09:07:11;;;;;;;;;;;;;;;21.43;48.15;102188.41;5017275;28;1828;-70
2022/10/12 09:09:46;;;;;;;;;;;;;;;21.43;48.14;102194.94;5017285;28;1906;-69
2022/10/12 09:12:16;;;;;;;;;;;;;;;21.42;48.71;102187.66;5015568;28;1590;-69
2022/10/12 09:14:42;;;;;;;;;;;;;;;21.46;48.32;102187.16;5015790;28;1806;-69
2022/10/12 09:17:20;;;;;;;;;;;;;;;21.46;48.54;102190.03;5029762;28;1744;-71
2022/10/12 09:19:46;;;;;;;;;;;;;;;21.46;48.52;102175.63;5029805;28;1628;-69
2022/10/12 09:22:16;;;;;;;;;;;;;;;21.46;48.56;102181.38;5023863;28;1618;-71
2022/10/12 09:24:42;;;;;;;;;;;;;;;21.44;48.65;102182.03;5014312;28;1728;-69
2022/10/12 09:27:18;;;;;;;;;;;;;;;21.49;48.87;102185.91;5014153;28;1740;-67
2022/10/12 09:29:45;;;;;;;;;;;;;;;21.46;48.85;102179.28;5014562;28;1902;-68
2022/10/12 09:32:15;;;;;;;;;;;;;;;21.46;49.18;102178.50;5013621;28;1699;-71
2022/10/12 09:34:42;;;;;;;;;;;;;;;21.45;49.11;102180.66;5010914;28;1731;-71
2022/10/12 09:37:11;;;;;;;;;;;;;;;21.46;49.26;102175.63;5015128;28;1641;-69
2022/10/12 09:39:37;;;;;;;;;;;;;;;21.47;49.15;102183.66;5020693;28;1908;-70
2022/10/12 09:42:04;;;;;;;;;;;;;;;21.47;49.34;102171.38;5024867;28;3107;-70
2022/10/12 09:44:31;;;;;;;;;;;;;;;21.46;49.41;102182.16;5017386;28;3160;-55
2022/10/12 09:46:57;;;;;;;;;;;;;;;21.32;49.29;102176.19;5013758;28;2974;-56
2022/10/12 09:49:42;;;;;;;;;;;;;;;20.99;47.68;102175.53;5014958;28;2782;-60
2022/10/12 09:52:09;;;;;;;;;;;;;;;21.25;47.77;102162.78;5018079;28;2747;-63
2022/10/12 09:54:37;;;;;;;;;;;;;;;21.27;47.84;102168.69;5014587;28;2818;-65
2022/10/12 09:57:03;;;;;;;;;;;;;;;21.28;47.94;102167.31;5014413;28;2782;-66
2022/10/12 09:59:36;;;;;;;;;;;;;;;21.08;47.91;102169.66;5016563;28;1554;-65
2022/10/12 10:02:08;;;;;;;;;;;;;;;20.88;47.19;102177.72;5014965;28;2864;-60
2022/10/12 10:04:34;;;;;;;;;;;;;;;20.83;45.87;102164.44;5014956;28;2912;-60
2022/10/12 10:07:20;;;;;;;;;;;;;;;20.78;44.89;102159.81;5017532;28;2896;-60
2022/10/12 10:09:46;;;;;;;;;;;;;;;20.71;43.89;102169.41;5013641;28;1967;-60
2022/10/12 10:12:18;;;;;;;;;;;;;;;20.67;43.96;102166.25;5017030;28;1585;-60
2022/10/12 10:14:44;;;;;;;;;;;;;;;20.66;43.35;102167.63;5017495;28;1636;-60
2022/10/12 10:17:14;;;;;;;;;;;;;;;20.67;43.34;102160.50;5020547;28;1776;-60
2022/10/12 10:19:46;;;;;;;;;;;;;;;20.78;43.17;102156.19;5022273;28;2904;-73
2022/10/12 10:22:13;;;;;;;;;;;;;;;20.89;42.60;102152.56;5016619;28;1717;-73
2022/10/12 10:24:39;;;;;;;;;;;;;;;21.02;42.58;102151.22;5021390;28;1522;-72
2022/10/12 10:27:06;;;;;;;;;;;;;;;21.11;42.64;102156.88;5018920;28;1828;-74
2022/10/12 10:29:34;;;;;;;;;;;;;;;21.16;43.07;102149.25;5013032;28;2016;-72
2022/10/12 10:32:14;;;;;;;;;;;;;;;21.18;43.67;102145.75;5020214;28;1629;-72
2022/10/12 10:34:41;;;;;;;;;;;;;;;21.20;43.60;102146.63;5015522;28;1578;-73
2022/10/12 10:37:11;;;;;;;;;;;;;;;21.22;43.96;102146.75;5014535;28;1732;-74
2022/10/12 10:39:45;;;;;;;;;;;;;;;21.22;44.57;102158.28;5033111;28;1640;-60
2022/10/12 10:42:15;;;;;;;;;;;;;;;21.17;45.04;102153.66;5025439;28;2350;-60
2022/10/12 10:44:45;;;;;;;;;;;;;;;20.89;44.07;102159.09;5012956;28;2893;-60
2022/10/12 10:47:11;;;;;;;;;;;;;;;20.80;42.86;102154.19;5023297;28;2864;-61
2022/10/12 10:49:42;;;;;;;;;;;;;;;20.80;42.70;102150.53;5016156;28;2858;-60
2022/10/12 10:52:20;;;;;;;;;;;;;;;20.75;42.06;102146.63;5009792;28;2854;-70
2022/10/12 10:54:48;;;;;;;;;;;;;;;20.83;41.91;102143.53;5015689;28;2770;-70
2022/10/12 10:57:19;;;;;;;;;;;;;;;20.98;41.90;102139.44;5028395;28;1720;-70
2022/10/12 10:59:56;;;;;;;;;;;;;;;21.08;41.78;102140.09;5008447;28;2829;-71
2022/10/12 11:02:40;;;;;;;;;;;;;;;21.11;42.36;102130.94;5014010;28;3090;-75
2022/10/12 11:05:08;;;;;;;;;;;;;;;21.16;42.77;102131.22;5013366;28;3156;-70
2022/10/12 11:07:36;;;;;;;;;;;;;;;21.18;43.75;102140.75;5022791;28;1643;-70
2022/10/12 11:10:29;;;;;;;;;;;;;;;21.19;44.99;102127.84;5021735;28;3085;-70
2022/10/12 11:12:56;;;;;;;;;;;;;;;21.22;44.96;102122.97;5010932;28;1608;-73
2022/10/12 11:15:34;;;;;;;;;;;;;;;21.24;44.82;102131.75;5032672;28;1710;-64
2022/10/12 11:18:21;;;;;;;;;;;;;;;21.23;45.67;102118.69;5015487;28;1787;-63
2022/10/12 11:20:53;;;;;;;;;;;;;;;21.23;45.80;102107.16;5020437;28;2955;-61
2022/10/12 11:23:22;;;;;;;;;;;;;;;21.22;46.04;102106.44;5018420;28;1578;-61
2022/10/12 11:25:54;;;;;;;;;;;;;;;21.21;45.79;102107.81;5029071;28;1988;-61
2022/10/12 11:28:20;;;;;;;;;;;;;;;21.22;45.90;102100.66;5011639;28;1815;-61
2022/10/12 11:30:48;;;;;;;;;;;;;;;21.22;45.98;102097.78;5015191;28;1922;-64
2022/10/12 11:33:17;;;;;;;;;;;;;;;21.22;46.06;102094.91;5013014;28;1607;-62
2022/10/12 11:35:43;;;;;;;;;;;;;;;21.22;46.19;102097.03;5011496;28;1619;-62
2022/10/12 11:38:21;;;;;;;;;;;;;;;21.23;46.33;102089.88;5011584;28;1776;-63
2022/10/12 11:40:52;;;;;;;;;;;;;;;21.24;46.64;102085.66;5011629;28;1606;-62
2022/10/12 11:43:49;;;;;;;;;;;;;;;21.24;46.39;102086.38;5010777;28;1577;-62
2022/10/12 11:46:16;;;;;;;;;;;;;;;21.24;46.80;102077.75;5032545;28;1787;-63
2022/10/12 11:48:53;;;;;;;;;;;;;;;21.24;46.71;102074.88;5024745;28;1609;-60
2022/10/12 11:51:19;;;;;;;;;;;;;;;21.25;47.29;102075.63;5015877;28;1914;-63
2022/10/12 11:54:04;;;;;;;;;;;;;;;21.26;47.47;102072.13;5013947;28;1617;-66
2022/10/12 11:56:32;;;;;;;;;;;;;;;21.33;47.60;102064.59;5014145;28;1510;-62
2022/10/12 11:59:08;;;;;;;;;;;;;;;21.31;47.60;102061.59;5048479;28;1576;-61
2022/10/12 12:01:49;;;;;;;;;;;;;;;21.30;47.73;102060.06;5017082;28;1681;-61
2022/10/12 12:04:26;;;;;;;;;;;;;;;21.28;47.71;102057.84;5011362;28;1749;-61
2022/10/12 12:07:15;;;;;;;;;;;;;;;21.32;48.63;102058.06;5025314;28;1700;-64
2022/10/12 12:09:42;;;;;;;;;;;;;;;21.34;48.67;102049.56;5020876;28;1961;-63
2022/10/12 12:12:19;;;;;;;;;;;;;;;21.36;49.29;102051.81;5016646;28;1839;-61
2022/10/12 12:14:51;;;;;;;;;;;;;;;21.30;48.63;102042.78;5013795;28;1633;-64
2022/10/12 12:17:18;;;;;;;;;;;;;;;21.22;47.83;102048.81;5013380;28;1670;-67
2022/10/12 12:19:44;;;;;;;;;;;;;;;21.23;47.38;102044.53;5013825;28;1707;-62
2022/10/12 12:22:14;;;;;;;;;;;;;;;21.26;47.18;102046.19;5017814;28;1803;-63
2022/10/12 12:24:49;;;;;;;;;;;;;;;21.28;47.33;102049.19;5015553;28;1586;-63
2022/10/12 12:27:34;;;;;;;;;;;;;;;21.29;47.50;102042.03;5012665;28;1756;-62
2022/10/12 12:30:00;;;;;;;;;;;;;;;21.29;47.69;102047.81;5012329;28;1981;-63
2022/10/12 12:32:38;;;;;;;;;;;;;;;21.29;47.98;102042.03;5016132;28;1585;-63
2022/10/12 12:35:05;;;;;;;;;;;;;;;21.29;48.32;102036.28;5015572;28;1687;-62
2022/10/12 12:37:31;;;;;;;;;;;;;;;21.29;48.23;102047.81;5015602;28;1823;-61
2022/10/12 12:39:57;;;;;;;;;;;;;;;21.30;48.41;102042.78;5014115;28;1686;-61
2022/10/12 12:42:24;;;;;;;;;;;;;;;21.30;48.70;102037.03;5029459;28;1576;-60
2022/10/12 12:44:51;;;;;;;;;;;;;;;21.30;48.73;102034.16;5015568;28;2418;-62
2022/10/12 12:47:18;;;;;;;;;;;;;;;21.30;48.64;102028.38;5018530;28;1817;-62
2022/10/12 12:50:23;;;;;;;;;;;;;;;21.30;48.75;102031.25;5018488;28;1915;-63
2022/10/12 12:52:50;;;;;;;;;;;;;;;21.31;48.75;102033.53;5018563;28;1615;-63
2022/10/12 12:55:20;;;;;;;;;;;;;;;21.31;48.85;102024.88;5015205;28;1634;-63
2022/10/12 12:58:05;;;;;;;;;;;;;;;21.30;49.11;102020.50;5022833;28;1576;-61